sensor_id;sensor_type;location;lat;lon;timestamp;pressure;altitude;pressure_sealevel;temperature;humidity
7058;BME280;3570;43.080;25.628;2023-09-18T00:01:16;-20056.91;;;20.78;100.00
7058;BME280;3570;43.080;25.628;2023-09-18T00:04:03;-20058.94;;;20.85;100.00
7058;BME280;3570;43.080;25.628;2023-09-18T00:06:47;-20060.38;;;20.90;100.00
7058;BME280;3570;43.080;25.628;2023-09-18T00:09:31;-20069.94;;;21.23;100.00
7058;BME280;3570;43.080;25.628;2023-09-18T00:12:15;-20067.63;;;21.15;100.00
7058;BME280;3570;43.080;25.628;2023-09-18T00:14:59;-20068.22;;;21.17;100.00
7058;BME280;3570;43.080;25.628;2023-09-18T00:17:43;-20063.88;;;21.02;100.00
7058;BME280;3570;43.080;25.628;2023-09-18T00:20:27;-20063.28;;;21.00;100.00
7058;BME280;3570;43.080;25.628;2023-09-18T00:23:11;-20062.41;;;20.97;100.00
7058;BME280;3570;43.080;25.628;2023-09-18T00:25:54;-20057.34;;;20.80;100.00
7058;BME280;3570;43.080;25.628;2023-09-18T00:28:38;-20063.41;;;21.01;100.00
7058;BME280;3570;43.080;25.628;2023-09-18T00:31:22;-20065.03;;;21.06;100.00
7058;BME280;3570;43.080;25.628;2023-09-18T00:34:06;-20059.78;;;20.88;100.00
7058;BME280;3570;43.080;25.628;2023-09-18T00:36:50;-20060.81;;;20.92;100.00
7058;BME280;3570;43.080;25.628;2023-09-18T00:39:34;-20048.50;;;20.49;100.00
7058;BME280;3570;43.080;25.628;2023-09-18T00:42:18;-20051.97;;;20.61;100.00
7058;BME280;3570;43.080;25.628;2023-09-18T00:45:02;-20036.31;;;20.07;100.00
7058;BME280;3570;43.080;25.628;2023-09-18T00:47:46;-20029.78;;;19.84;100.00
7058;BME280;3570;43.080;25.628;2023-09-18T00:50:30;-20019.78;;;19.49;100.00
7058;BME280;3570;43.080;25.628;2023-09-18T00:53:20;-20020.38;;;19.51;100.00
7058;BME280;3570;43.080;25.628;2023-09-18T00:56:06;-20011.97;;;19.22;100.00
7058;BME280;3570;43.080;25.628;2023-09-18T00:58:50;-20029.38;;;19.83;100.00
7058;BME280;3570;43.080;25.628;2023-09-18T01:01:35;-20026.31;;;19.72;100.00
7058;BME280;3570;43.080;25.628;2023-09-18T01:04:19;-20034.56;;;20.01;100.00
7058;BME280;3570;43.080;25.628;2023-09-18T01:07:03;-20015.44;;;19.34;100.00
7058;BME280;3570;43.080;25.628;2023-09-18T01:09:48;-20009.34;;;19.13;100.00
7058;BME280;3570;43.080;25.628;2023-09-18T01:12:40;-20014.28;;;19.30;100.00
7058;BME280;3570;43.080;25.628;2023-09-18T01:15:32;-20017.63;;;19.42;100.00
7058;BME280;3570;43.080;25.628;2023-09-18T01:18:16;-20025.75;;;19.70;100.00
7058;BME280;3570;43.080;25.628;2023-09-18T01:21:02;-20008.47;;;19.10;100.00
7058;BME280;3570;43.080;25.628;2023-09-18T01:23:46;-20004.41;;;18.96;100.00
7058;BME280;3570;43.080;25.628;2023-09-18T01:26:30;-19988.88;;;18.42;100.00
7058;BME280;3570;43.080;25.628;2023-09-18T01:29:14;-19974.94;;;17.94;100.00
7058;BME280;3570;43.080;25.628;2023-09-18T01:31:58;-20002.97;;;18.91;100.00
7058;BME280;3570;43.080;25.628;2023-09-18T01:34:48;-20007.31;;;19.06;100.00
7058;BME280;3570;43.080;25.628;2023-09-18T01:37:33;-20021.09;;;19.54;100.00
7058;BME280;3570;43.080;25.628;2023-09-18T01:40:18;-20023.84;;;19.63;100.00
7058;BME280;3570;43.080;25.628;2023-09-18T01:43:03;-20033.13;;;19.96;100.00
7058;BME280;3570;43.080;25.628;2023-09-18T01:45:47;-20036.63;;;20.08;100.00
7058;BME280;3570;43.080;25.628;2023-09-18T01:48:31;-20036.16;;;20.06;100.00
7058;BME280;3570;43.080;25.628;2023-09-18T01:51:16;-20041.09;;;20.23;100.00
7058;BME280;3570;43.080;25.628;2023-09-18T01:54:00;-20040.97;;;20.23;100.00
7058;BME280;3570;43.080;25.628;2023-09-18T01:56:44;-20037.34;;;20.10;100.00
7058;BME280;3570;43.080;25.628;2023-09-18T01:59:28;-20034.28;;;20.00;100.00
7058;BME280;3570;43.080;25.628;2023-09-18T02:02:12;-20038.22;;;20.13;100.00
7058;BME280;3570;43.080;25.628;2023-09-18T02:04:56;-20044.88;;;20.36;100.00
7058;BME280;3570;43.080;25.628;2023-09-18T02:07:40;-20043.84;;;20.33;100.00
7058;BME280;3570;43.080;25.628;2023-09-18T02:10:24;-20036.91;;;20.09;100.00
7058;BME280;3570;43.080;25.628;2023-09-18T02:13:08;-20038.34;;;20.14;100.00
7058;BME280;3570;43.080;25.628;2023-09-18T02:15:53;-20030.22;;;19.86;100.00
7058;BME280;3570;43.080;25.628;2023-09-18T02:18:37;-20026.47;;;19.73;100.00
7058;BME280;3570;43.080;25.628;2023-09-18T02:21:22;-20001.22;;;18.85;100.00
7058;BME280;3570;43.080;25.628;2023-09-18T02:24:06;-19979.72;;;18.11;100.00
7058;BME280;3570;43.080;25.628;2023-09-18T02:26:51;-19983.06;;;18.22;100.00
7058;BME280;3570;43.080;25.628;2023-09-18T02:29:35;-19985.53;;;18.31;100.00
7058;BME280;3570;43.080;25.628;2023-09-18T02:32:19;-19976.25;;;17.99;100.00
7058;BME280;3570;43.080;25.628;2023-09-18T02:35:04;-19973.78;;;17.90;100.00
7058;BME280;3570;43.080;25.628;2023-09-18T02:37:50;-19992.38;;;18.54;100.00
7058;BME280;3570;43.080;25.628;2023-09-18T02:40:34;-20002.09;;;18.88;100.00
7058;BME280;3570;43.080;25.628;2023-09-18T02:43:18;-20006.72;;;19.04;100.00
7058;BME280;3570;43.080;25.628;2023-09-18T02:46:03;-20019.94;;;19.50;100.00
7058;BME280;3570;43.080;25.628;2023-09-18T02:48:49;-20019.22;;;19.47;100.00
7058;BME280;3570;43.080;25.628;2023-09-18T02:51:32;-20021.97;;;19.57;100.00
7058;BME280;3570;43.080;25.628;2023-09-18T02:54:17;-20019.22;;;19.47;100.00
7058;BME280;3570;43.080;25.628;2023-09-18T02:57:00;-20020.50;;;19.52;100.00
7058;BME280;3570;43.080;25.628;2023-09-18T02:59:44;-20020.94;;;19.53;100.00
7058;BME280;3570;43.080;25.628;2023-09-18T03:02:28;-20023.84;;;19.63;100.00
7058;BME280;3570;43.080;25.628;2023-09-18T03:05:13;-20019.22;;;19.47;100.00
7058;BME280;3570;43.080;25.628;2023-09-18T03:07:57;-20011.09;;;19.19;100.00
7058;BME280;3570;43.080;25.628;2023-09-18T03:10:42;-20020.94;;;19.53;100.00
7058;BME280;3570;43.080;25.628;2023-09-18T03:13:28;-20015.59;;;19.35;100.00
7058;BME280;3570;43.080;25.628;2023-09-18T03:16:12;-20021.97;;;19.57;100.00
7058;BME280;3570;43.080;25.628;2023-09-18T03:18:56;-20019.94;;;19.50;100.00
7058;BME280;3570;43.080;25.628;2023-09-18T03:21:40;-20015.16;;;19.33;100.00
7058;BME280;3570;43.080;25.628;2023-09-18T03:24:24;-20016.59;;;19.38;100.00
7058;BME280;3570;43.080;25.628;2023-09-18T03:27:08;-20015.59;;;19.35;100.00
7058;BME280;3570;43.080;25.628;2023-09-18T03:29:52;-20020.66;;;19.52;100.00
7058;BME280;3570;43.080;25.628;2023-09-18T03:32:36;-20019.22;;;19.47;100.00
7058;BME280;3570;43.080;25.628;2023-09-18T03:35:20;-20018.34;;;19.44;100.00
7058;BME280;3570;43.080;25.628;2023-09-18T03:38:04;-20013.41;;;19.27;100.00
7058;BME280;3570;43.080;25.628;2023-09-18T03:40:48;-20007.31;;;19.06;100.00
7058;BME280;3570;43.080;25.628;2023-09-18T03:43:33;-20019.22;;;19.47;100.00
7058;BME280;3570;43.080;25.628;2023-09-18T03:46:16;-20016.03;;;19.36;100.00
7058;BME280;3570;43.080;25.628;2023-09-18T03:49:00;-20020.94;;;19.53;100.00
7058;BME280;3570;43.080;25.628;2023-09-18T03:51:44;-20020.66;;;19.52;100.00
7058;BME280;3570;43.080;25.628;2023-09-18T03:54:28;-20013.69;;;19.28;100.00
7058;BME280;3570;43.080;25.628;2023-09-18T03:57:12;-20008.63;;;19.11;100.00
7058;BME280;3570;43.080;25.628;2023-09-18T03:59:57;-19992.81;;;18.56;100.00
7058;BME280;3570;43.080;25.628;2023-09-18T04:02:40;-19977.84;;;18.04;100.00
7058;BME280;3570;43.080;25.628;2023-09-18T04:05:24;-19945.00;;;16.90;100.00
7058;BME280;3570;43.080;25.628;2023-09-18T04:08:09;-19935.84;;;16.59;100.00
7058;BME280;3570;43.080;25.628;2023-09-18T04:10:54;-19954.03;;;17.22;100.00
7058;BME280;3570;43.080;25.628;2023-09-18T04:13:39;-19970.44;;;17.78;100.00
7058;BME280;3570;43.080;25.628;2023-09-18T04:16:23;-19986.69;;;18.35;100.00
7058;BME280;3570;43.080;25.628;2023-09-18T04:19:07;-19978.56;;;18.07;100.00
7058;BME280;3570;43.080;25.628;2023-09-18T04:21:52;-19981.34;;;18.16;100.00
7058;BME280;3570;43.080;25.628;2023-09-18T04:24:36;-19981.34;;;18.16;100.00
7058;BME280;3570;43.080;25.628;2023-09-18T04:27:20;-19971.31;;;17.81;100.00
7058;BME280;3570;43.080;25.628;2023-09-18T04:30:05;-19955.63;;;17.27;100.00
7058;BME280;3570;43.080;25.628;2023-09-18T04:32:49;-19948.34;;;17.02;100.00
7058;BME280;3570;43.080;25.628;2023-09-18T04:35:35;-19956.06;;;17.29;100.00
7058;BME280;3570;43.080;25.628;2023-09-18T04:38:20;-19968.69;;;17.72;100.00
7058;BME280;3570;43.080;25.628;2023-09-18T04:41:04;-19962.31;;;17.50;100.00
7058;BME280;3570;43.080;25.628;2023-09-18T04:43:51;-19949.22;;;17.05;100.00
7058;BME280;3570;43.080;25.628;2023-09-18T04:46:34;-19946.59;;;16.96;100.00
7058;BME280;3570;43.080;25.628;2023-09-18T04:49:19;-19946.91;;;16.97;100.00
7058;BME280;3570;43.080;25.628;2023-09-18T04:52:03;-19942.53;;;16.82;100.00
7058;BME280;3570;43.080;25.628;2023-09-18T04:54:49;-19952.41;;;17.16;100.00
7058;BME280;3570;43.080;25.628;2023-09-18T04:57:33;-19965.50;;;17.61;100.00
7058;BME280;3570;43.080;25.628;2023-09-18T05:00:18;-19985.53;;;18.31;100.00
7058;BME280;3570;43.080;25.628;2023-09-18T05:03:03;-19996.00;;;18.67;100.00
7058;BME280;3570;43.080;25.628;2023-09-18T05:05:48;-19991.63;;;18.52;100.00
7058;BME280;3570;43.080;25.628;2023-09-18T05:08:32;-19971.59;;;17.82;100.00
7058;BME280;3570;43.080;25.628;2023-09-18T05:11:16;-19968.56;;;17.72;100.00
7058;BME280;3570;43.080;25.628;2023-09-18T05:14:00;-19974.06;;;17.91;100.00
7058;BME280;3570;43.080;25.628;2023-09-18T05:16:44;-19974.50;;;17.93;100.00
7058;BME280;3570;43.080;25.628;2023-09-18T05:19:28;-19975.53;;;17.96;100.00
7058;BME280;3570;43.080;25.628;2023-09-18T05:22:12;-19987.72;;;18.38;100.00
7058;BME280;3570;43.080;25.628;2023-09-18T05:24:56;-19987.00;;;18.36;100.00
7058;BME280;3570;43.080;25.628;2023-09-18T05:27:40;-19999.47;;;18.79;100.00
7058;BME280;3570;43.080;25.628;2023-09-18T05:30:33;-20004.69;;;18.97;100.00
7058;BME280;3570;43.080;25.628;2023-09-18T05:33:22;-20011.09;;;19.19;100.00
7058;BME280;3570;43.080;25.628;2023-09-18T05:36:07;-20006.44;;;19.03;100.00
7058;BME280;3570;43.080;25.628;2023-09-18T05:38:51;-20005.72;;;19.01;100.00
7058;BME280;3570;43.080;25.628;2023-09-18T05:41:35;-20005.00;;;18.98;100.00
7058;BME280;3570;43.080;25.628;2023-09-18T05:44:18;-20012.53;;;19.24;100.00
7058;BME280;3570;43.080;25.628;2023-09-18T05:47:02;-20017.19;;;19.40;100.00
7058;BME280;3570;43.080;25.628;2023-09-18T05:49:47;-20009.19;;;19.13;100.00
7058;BME280;3570;43.080;25.628;2023-09-18T05:52:32;-19998.59;;;18.76;100.00
7058;BME280;3570;43.080;25.628;2023-09-18T05:55:16;-20022.41;;;19.58;100.00
7058;BME280;3570;43.080;25.628;2023-09-18T05:58:00;-20038.63;;;20.15;100.00
7058;BME280;3570;43.080;25.628;2023-09-18T06:00:45;-20037.63;;;20.11;100.00
7058;BME280;3570;43.080;25.628;2023-09-18T06:03:30;-20042.69;;;20.29;100.00
7058;BME280;3570;43.080;25.628;2023-09-18T06:06:19;-20026.19;;;19.72;100.00
7058;BME280;3570;43.080;25.628;2023-09-18T06:09:02;-20020.09;;;19.50;100.00
7058;BME280;3570;43.080;25.628;2023-09-18T06:11:46;-20030.22;;;19.86;100.00
7058;BME280;3570;43.080;25.628;2023-09-18T06:14:31;-20016.31;;;19.37;100.00
7058;BME280;3570;43.080;25.628;2023-09-18T06:17:16;-20028.06;;;19.78;100.00
7058;BME280;3570;43.080;25.628;2023-09-18T06:20:00;-20042.13;;;20.27;100.00
7058;BME280;3570;43.080;25.628;2023-09-18T06:22:44;-20044.72;;;20.36;100.00
7058;BME280;3570;43.080;25.628;2023-09-18T06:25:27;-20039.22;;;20.17;100.00
7058;BME280;3570;43.080;25.628;2023-09-18T06:28:11;-20034.44;;;20.00;100.00
7058;BME280;3570;43.080;25.628;2023-09-18T06:30:56;-20050.25;;;20.55;100.00
7058;BME280;3570;43.080;25.628;2023-09-18T06:33:40;-20064.88;;;21.06;100.00
7058;BME280;3570;43.080;25.628;2023-09-18T06:36:24;-20072.25;;;21.31;100.00
7058;BME280;3570;43.080;25.628;2023-09-18T06:39:08;-20074.56;;;21.39;100.00
7058;BME280;3570;43.080;25.628;2023-09-18T06:41:52;-20075.72;;;21.43;100.00
7058;BME280;3570;43.080;25.628;2023-09-18T06:44:37;-20072.25;;;21.31;100.00
7058;BME280;3570;43.080;25.628;2023-09-18T06:47:21;-20089.91;;;21.93;100.00
7058;BME280;3570;43.080;25.628;2023-09-18T06:50:07;-20096.88;;;22.17;100.00
7058;BME280;3570;43.080;25.628;2023-09-18T06:52:53;-20097.44;;;22.19;100.00
7058;BME280;3570;43.080;25.628;2023-09-18T06:55:37;-20105.69;;;22.48;100.00
7058;BME280;3570;43.080;25.628;2023-09-18T06:58:21;-20119.00;;;22.94;100.00
7058;BME280;3570;43.080;25.628;2023-09-18T07:01:05;-20127.09;;;23.22;100.00
7058;BME280;3570;43.080;25.628;2023-09-18T07:03:53;-20114.38;;;22.78;98.45
7058;BME280;3570;43.080;25.628;2023-09-18T07:06:37;-20117.69;;;22.89;100.00
7058;BME280;3570;43.080;25.628;2023-09-18T07:09:21;-20123.63;;;23.10;97.78
7058;BME280;3570;43.080;25.628;2023-09-18T07:12:07;-20126.81;;;23.21;94.63
7058;BME280;3570;43.080;25.628;2023-09-18T07:14:52;-20111.91;;;22.69;88.64
7058;BME280;3570;43.080;25.628;2023-09-18T07:17:36;-20113.06;;;22.73;93.68
7058;BME280;3570;43.080;25.628;2023-09-18T07:20:20;-20128.09;;;23.25;89.43
7058;BME280;3570;43.080;25.628;2023-09-18T07:23:06;-20132.16;;;23.40;90.03
7058;BME280;3570;43.080;25.628;2023-09-18T07:25:50;-20145.44;;;23.86;86.21
7058;BME280;3570;43.080;25.628;2023-09-18T07:28:34;-20152.09;;;24.09;85.01
7058;BME280;3570;43.080;25.628;2023-09-18T07:31:18;-20160.75;;;24.39;80.78
7058;BME280;3570;43.080;25.628;2023-09-18T07:34:02;-20165.22;;;24.55;80.18
7058;BME280;3570;43.080;25.628;2023-09-18T07:36:47;-20167.69;;;24.63;78.37
7058;BME280;3570;43.080;25.628;2023-09-18T07:39:31;-20171.44;;;24.76;79.36
7058;BME280;3570;43.080;25.628;2023-09-18T07:42:16;-20177.06;;;24.96;77.61
7058;BME280;3570;43.080;25.628;2023-09-18T07:45:00;-20179.69;;;25.05;76.85
7058;BME280;3570;43.080;25.628;2023-09-18T07:47:44;-20179.38;;;25.04;74.64
7058;BME280;3570;43.080;25.628;2023-09-18T07:50:28;-20181.53;;;25.11;73.15
7058;BME280;3570;43.080;25.628;2023-09-18T07:53:12;-20180.69;;;25.08;74.06
7058;BME280;3570;43.080;25.628;2023-09-18T07:55:57;-20187.03;;;25.31;76.04
7058;BME280;3570;43.080;25.628;2023-09-18T07:58:42;-20182.41;;;25.14;71.44
7058;BME280;3570;43.080;25.628;2023-09-18T08:01:26;-20194.25;;;25.56;69.75
7058;BME280;3570;43.080;25.628;2023-09-18T08:04:10;-20196.69;;;25.64;69.58
7058;BME280;3570;43.080;25.628;2023-09-18T08:06:54;-20197.41;;;25.67;67.92
7058;BME280;3570;43.080;25.628;2023-09-18T08:09:38;-20197.56;;;25.67;66.75
7058;BME280;3570;43.080;25.628;2023-09-18T08:12:23;-20204.47;;;25.91;67.01
7058;BME280;3570;43.080;25.628;2023-09-18T08:15:08;-20203.31;;;25.87;68.15
7058;BME280;3570;43.080;25.628;2023-09-18T08:17:53;-20212.84;;;26.21;64.90
7058;BME280;3570;43.080;25.628;2023-09-18T08:20:41;-20215.88;;;26.31;63.50
7058;BME280;3570;43.080;25.628;2023-09-18T08:23:26;-20221.63;;;26.51;61.33
7058;BME280;3570;43.080;25.628;2023-09-18T08:26:11;-20220.91;;;26.49;59.85
7058;BME280;3570;43.080;25.628;2023-09-18T08:28:55;-20227.41;;;26.71;59.51
7058;BME280;3570;43.080;25.628;2023-09-18T08:31:39;-20229.13;;;26.77;59.71
7058;BME280;3570;43.080;25.628;2023-09-18T08:34:23;-20229.84;;;26.80;59.50
7058;BME280;3570;43.080;25.628;2023-09-18T08:37:07;-20235.03;;;26.98;59.26
7058;BME280;3570;43.080;25.628;2023-09-18T08:39:52;-20234.59;;;26.96;60.62
7058;BME280;3570;43.080;25.628;2023-09-18T08:42:47;-20234.31;;;26.95;58.64
7058;BME280;3570;43.080;25.628;2023-09-18T08:45:55;-20230.28;;;26.81;59.37
7058;BME280;3570;43.080;25.628;2023-09-18T08:48:45;-20253.03;;;27.61;56.75
7058;BME280;3570;43.080;25.628;2023-09-18T08:51:30;-20274.91;;;28.37;53.44
7058;BME280;3570;43.080;25.628;2023-09-18T08:54:15;-20284.13;;;28.69;50.70
7058;BME280;3570;43.080;25.628;2023-09-18T08:56:59;-20289.28;;;28.88;51.05
7058;BME280;3570;43.080;25.628;2023-09-18T08:59:43;-20324.34;;;30.10;46.49
7058;BME280;3570;43.080;25.628;2023-09-18T09:02:28;-20339.84;;;30.65;44.11
7058;BME280;3570;43.080;25.628;2023-09-18T09:05:12;-20355.47;;;31.19;42.99
7058;BME280;3570;43.080;25.628;2023-09-18T09:07:57;-20377.84;;;31.98;40.52
7058;BME280;3570;43.080;25.628;2023-09-18T09:10:41;-20369.81;;;31.70;39.66
7058;BME280;3570;43.080;25.628;2023-09-18T09:13:25;-20397.63;;;32.67;37.93
7058;BME280;3570;43.080;25.628;2023-09-18T09:16:11;-20406.63;;;32.99;36.60
7058;BME280;3570;43.080;25.628;2023-09-18T09:18:56;-20416.66;;;33.34;36.54
7058;BME280;3570;43.080;25.628;2023-09-18T09:21:41;-20434.81;;;33.98;34.57
7058;BME280;3570;43.080;25.628;2023-09-18T09:24:44;-20422.50;;;33.55;35.44
7058;BME280;3570;43.080;25.628;2023-09-18T09:27:29;-20421.09;;;33.50;35.07
7058;BME280;3570;43.080;25.628;2023-09-18T09:30:19;-20428.66;;;33.76;35.61
7058;BME280;3570;43.080;25.628;2023-09-18T09:33:05;-20424.38;;;33.61;35.32
7058;BME280;3570;43.080;25.628;2023-09-18T09:35:51;-20376.69;;;31.94;38.15
7058;BME280;3570;43.080;25.628;2023-09-18T09:38:35;-20341.13;;;30.69;40.16
7058;BME280;3570;43.080;25.628;2023-09-18T09:41:20;-20325.63;;;30.15;41.93
7058;BME280;3570;43.080;25.628;2023-09-18T09:44:05;-20339.56;;;30.64;41.22
7058;BME280;3570;43.080;25.628;2023-09-18T09:46:50;-20366.53;;;31.58;37.17
7058;BME280;3570;43.080;25.628;2023-09-18T09:49:45;-20405.34;;;32.94;36.09
7058;BME280;3570;43.080;25.628;2023-09-18T09:52:33;-20433.66;;;33.94;35.14
7058;BME280;3570;43.080;25.628;2023-09-18T09:58:09;-20445.53;;;34.36;32.81
7058;BME280;3570;43.080;25.628;2023-09-18T10:00:56;-20467.25;;;35.12;32.70
7058;BME280;3570;43.080;25.628;2023-09-18T10:03:44;-20489.78;;;35.91;31.09
7058;BME280;3570;43.080;25.628;2023-09-18T10:06:33;-20508.19;;;36.56;29.99
7058;BME280;3570;43.080;25.628;2023-09-18T10:09:20;-20528.13;;;37.27;28.34
7058;BME280;3570;43.080;25.628;2023-09-18T10:12:10;-20504.91;;;36.45;29.44
7058;BME280;3570;43.080;25.628;2023-09-18T10:14:56;-20482.50;;;35.66;29.86
7058;BME280;3570;43.080;25.628;2023-09-18T10:17:43;-20516.03;;;36.84;28.59
7058;BME280;3570;43.080;25.628;2023-09-18T10:20:30;-20506.91;;;36.52;27.58
7058;BME280;3570;43.080;25.628;2023-09-18T10:23:27;-20482.09;;;35.64;29.93
7058;BME280;3570;43.080;25.628;2023-09-18T10:26:20;-20471.53;;;35.27;28.88
7058;BME280;3570;43.080;25.628;2023-09-18T10:29:09;-20450.41;;;34.53;29.56
7058;BME280;3570;43.080;25.628;2023-09-18T10:31:55;-20418.06;;;33.39;30.63
7058;BME280;3570;43.080;25.628;2023-09-18T10:34:40;-20411.78;;;33.17;30.37
7058;BME280;3570;43.080;25.628;2023-09-18T10:37:25;-20377.72;;;31.97;32.72
7058;BME280;3570;43.080;25.628;2023-09-18T10:40:12;-20363.38;;;31.47;34.13
7058;BME280;3570;43.080;25.628;2023-09-18T10:42:57;-20385.16;;;32.23;32.10
7058;BME280;3570;43.080;25.628;2023-09-18T10:45:42;-20432.66;;;33.90;31.60
7058;BME280;3570;43.080;25.628;2023-09-18T10:48:28;-20448.53;;;34.46;30.07
7058;BME280;3570;43.080;25.628;2023-09-18T10:51:13;-20469.53;;;35.20;29.44
7058;BME280;3570;43.080;25.628;2023-09-18T10:53:57;-20501.78;;;36.34;27.94
7058;BME280;3570;43.080;25.628;2023-09-18T10:56:42;-20500.06;;;36.28;27.31
7058;BME280;3570;43.080;25.628;2023-09-18T10:59:27;-20525.44;;;37.17;26.40
7058;BME280;3570;43.080;25.628;2023-09-18T11:02:16;-20564.84;;;38.56;24.58
7058;BME280;3570;43.080;25.628;2023-09-18T11:05:02;-20555.31;;;38.23;24.82
7058;BME280;3570;43.080;25.628;2023-09-18T11:07:48;-20534.97;;;37.51;27.21
7058;BME280;3570;43.080;25.628;2023-09-18T11:10:32;-20567.28;;;38.65;24.81
7058;BME280;3570;43.080;25.628;2023-09-18T11:13:28;-20590.16;;;39.46;24.22
7058;BME280;3570;43.080;25.628;2023-09-18T11:21:47;-20549.50;;;38.02;25.23
7058;BME280;3570;43.080;25.628;2023-09-18T11:24:31;-20489.22;;;35.89;25.32
7058;BME280;3570;43.080;25.628;2023-09-18T11:27:24;-20463.41;;;34.98;27.55
7058;BME280;3570;43.080;25.628;2023-09-18T11:30:08;-20509.75;;;36.62;26.23
7058;BME280;3570;43.080;25.628;2023-09-18T11:32:55;-20543.94;;;37.83;25.16
7058;BME280;3570;43.080;25.628;2023-09-18T11:35:51;-20593.56;;;39.58;23.82
7058;BME280;3570;43.080;25.628;2023-09-18T11:41:35;-20555.91;;;38.25;25.05
7058;BME280;3570;43.080;25.628;2023-09-18T11:47:14;-20613.56;;;40.29;22.29
7058;BME280;3570;43.080;25.628;2023-09-18T11:50:10;-20600.22;;;39.82;23.04
7058;BME280;3570;43.080;25.628;2023-09-18T11:52:55;-20589.16;;;39.42;22.87
7058;BME280;3570;43.080;25.628;2023-09-18T11:55:39;-20626.06;;;40.73;22.54
7058;BME280;3570;43.080;25.628;2023-09-18T11:58:23;-20586.16;;;39.32;23.41
7058;BME280;3570;43.080;25.628;2023-09-18T12:01:10;-20599.94;;;39.81;23.46
7058;BME280;3570;43.080;25.628;2023-09-18T12:04:00;-20631.88;;;40.94;23.13
7058;BME280;3570;43.080;25.628;2023-09-18T12:06:44;-20592.56;;;39.55;22.49
7058;BME280;3570;43.080;25.628;2023-09-18T12:09:30;-20578.22;;;39.04;23.79
7058;BME280;3570;43.080;25.628;2023-09-18T12:12:16;-20561.16;;;38.43;23.38
7058;BME280;3570;43.080;25.628;2023-09-18T12:15:02;-20593.97;;;39.60;23.25
7058;BME280;3570;43.080;25.628;2023-09-18T12:17:47;-20614.72;;;40.33;21.62
7058;BME280;3570;43.080;25.628;2023-09-18T12:20:31;-20598.38;;;39.75;23.35
7058;BME280;3570;43.080;25.628;2023-09-18T12:23:17;-20611.16;;;40.20;22.10
7058;BME280;3570;43.080;25.628;2023-09-18T12:26:05;-20605.47;;;40.00;22.76
7058;BME280;3570;43.080;25.628;2023-09-18T12:28:51;-20580.19;;;39.11;22.70
7058;BME280;3570;43.080;25.628;2023-09-18T12:31:35;-20582.06;;;39.17;23.31
7058;BME280;3570;43.080;25.628;2023-09-18T12:34:20;-20604.78;;;39.98;23.40
7058;BME280;3570;43.080;25.628;2023-09-18T12:37:08;-20612.16;;;40.24;22.26
7058;BME280;3570;43.080;25.628;2023-09-18T12:39:56;-20621.22;;;40.56;21.29
7058;BME280;3570;43.080;25.628;2023-09-18T12:42:40;-20638.81;;;41.18;21.64
7058;BME280;3570;43.080;25.628;2023-09-18T12:45:25;-20661.75;;;42.00;21.55
7058;BME280;3570;43.080;25.628;2023-09-18T12:48:11;-20615.41;;;40.35;22.25
7058;BME280;3570;43.080;25.628;2023-09-18T12:51:02;-20603.06;;;39.92;22.60
7058;BME280;3570;43.080;25.628;2023-09-18T12:53:47;-20607.03;;;40.06;22.72
7058;BME280;3570;43.080;25.628;2023-09-18T12:56:32;-20628.88;;;40.83;21.84
7058;BME280;3570;43.080;25.628;2023-09-18T12:59:16;-20624.34;;;40.67;22.30
7058;BME280;3570;43.080;25.628;2023-09-18T13:02:00;-20645.91;;;41.44;20.81
7058;BME280;3570;43.080;25.628;2023-09-18T13:04:55;-20644.06;;;41.37;21.04
7058;BME280;3570;43.080;25.628;2023-09-18T13:07:46;-20664.88;;;42.11;20.67
7058;BME280;3570;43.080;25.628;2023-09-18T13:13:28;-20691.47;;;43.06;20.08
7058;BME280;3570;43.080;25.628;2023-09-18T13:16:13;-20658.94;;;41.90;20.87
7058;BME280;3570;43.080;25.628;2023-09-18T13:19:04;-20616.13;;;40.38;22.36
7058;BME280;3570;43.080;25.628;2023-09-18T13:21:49;-20612.16;;;40.24;22.76
7058;BME280;3570;43.080;25.628;2023-09-18T13:24:33;-20618.13;;;40.45;22.17
7058;BME280;3570;43.080;25.628;2023-09-18T13:27:18;-20632.00;;;40.94;21.53
7058;BME280;3570;43.080;25.628;2023-09-18T13:30:02;-20644.91;;;41.40;21.01
7058;BME280;3570;43.080;25.628;2023-09-18T13:32:50;-20669.97;;;42.29;20.71
7058;BME280;3570;43.080;25.628;2023-09-18T13:35:37;-20673.94;;;42.43;20.25
7058;BME280;3570;43.080;25.628;2023-09-18T13:38:22;-20680.16;;;42.65;19.78
7058;BME280;3570;43.080;25.628;2023-09-18T13:41:06;-20647.88;;;41.51;21.96
7058;BME280;3570;43.080;25.628;2023-09-18T13:43:50;-20647.16;;;41.48;21.30
7058;BME280;3570;43.080;25.628;2023-09-18T13:46:38;-20669.69;;;42.28;20.82
7058;BME280;3570;43.080;25.628;2023-09-18T13:49:23;-20687.66;;;42.92;20.47
7058;BME280;3570;43.080;25.628;2023-09-18T13:52:07;-20669.25;;;42.27;21.02
7058;BME280;3570;43.080;25.628;2023-09-18T13:54:51;-20670.41;;;42.31;21.57
7058;BME280;3570;43.080;25.628;2023-09-18T13:57:37;-20671.94;;;42.36;20.56
7058;BME280;3570;43.080;25.628;2023-09-18T14:00:22;-20697.84;;;43.28;20.26
7058;BME280;3570;43.080;25.628;2023-09-18T14:03:05;-20687.38;;;42.91;20.64
7058;BME280;3570;43.080;25.628;2023-09-18T14:05:50;-20650.00;;;41.58;21.06
7058;BME280;3570;43.080;25.628;2023-09-18T14:08:34;-20632.16;;;40.95;22.21
7058;BME280;3570;43.080;25.628;2023-09-18T14:11:19;-20660.75;;;41.96;21.37
7058;BME280;3570;43.080;25.628;2023-09-18T14:14:03;-20668.00;;;42.22;21.18
7058;BME280;3570;43.080;25.628;2023-09-18T14:16:47;-20665.16;;;42.12;20.38
7058;BME280;3570;43.080;25.628;2023-09-18T14:19:31;-20683.41;;;42.77;20.29
7058;BME280;3570;43.080;25.628;2023-09-18T14:22:16;-20666.28;;;42.16;22.04
7058;BME280;3570;43.080;25.628;2023-09-18T14:25:00;-20678.19;;;42.58;20.65
7058;BME280;3570;43.080;25.628;2023-09-18T14:27:48;-20669.69;;;42.28;20.64
7058;BME280;3570;43.080;25.628;2023-09-18T14:30:33;-20666.84;;;42.18;20.56
7058;BME280;3570;43.080;25.628;2023-09-18T14:33:17;-20665.16;;;42.12;21.30
7058;BME280;3570;43.080;25.628;2023-09-18T14:36:01;-20650.56;;;41.60;21.21
7058;BME280;3570;43.080;25.628;2023-09-18T14:38:47;-20646.19;;;41.45;21.25
7058;BME280;3570;43.080;25.628;2023-09-18T14:41:31;-20666.00;;;42.15;21.52
7058;BME280;3570;43.080;25.628;2023-09-18T14:44:16;-20690.75;;;43.03;20.22
7058;BME280;3570;43.080;25.628;2023-09-18T14:47:00;-20682.28;;;42.73;20.57